sensor_id;sensor_type;location;lat;lon;timestamp;temperature;humidity
14783;DHT22;7483;50.498;12.138;2023-03-05T00:01:29;3.00;99.90
14783;DHT22;7483;50.498;12.138;2023-03-05T00:04:00;2.90;99.90
14783;DHT22;7483;50.498;12.138;2023-03-05T00:06:31;2.80;99.90
14783;DHT22;7483;50.498;12.138;2023-03-05T00:09:00;2.80;99.90
14783;DHT22;7483;50.498;12.138;2023-03-05T00:11:29;2.80;99.90
14783;DHT22;7483;50.498;12.138;2023-03-05T00:14:00;2.80;99.90
14783;DHT22;7483;50.498;12.138;2023-03-05T00:16:30;2.70;99.90
14783;DHT22;7483;50.498;12.138;2023-03-05T00:18:59;2.70;99.90
14783;DHT22;7483;50.498;12.138;2023-03-05T00:21:31;2.70;99.90
14783;DHT22;7483;50.498;12.138;2023-03-05T00:24:02;2.70;99.90
14783;DHT22;7483;50.498;12.138;2023-03-05T00:26:35;2.70;99.90
14783;DHT22;7483;50.498;12.138;2023-03-05T00:29:05;2.70;99.90
14783;DHT22;7483;50.498;12.138;2023-03-05T00:31:36;2.70;99.90
14783;DHT22;7483;50.498;12.138;2023-03-05T00:34:07;2.70;99.90
14783;DHT22;7483;50.498;12.138;2023-03-05T00:36:40;2.70;99.90
14783;DHT22;7483;50.498;12.138;2023-03-05T00:39:09;2.70;99.90
14783;DHT22;7483;50.498;12.138;2023-03-05T00:41:38;2.70;99.90
14783;DHT22;7483;50.498;12.138;2023-03-05T00:44:06;2.70;99.90
14783;DHT22;7483;50.498;12.138;2023-03-05T00:46:35;2.70;99.90
14783;DHT22;7483;50.498;12.138;2023-03-05T00:49:03;2.70;99.90
14783;DHT22;7483;50.498;12.138;2023-03-05T00:51:31;2.70;99.90
14783;DHT22;7483;50.498;12.138;2023-03-05T00:54:02;2.60;99.90
14783;DHT22;7483;50.498;12.138;2023-03-05T00:56:30;2.60;99.90
14783;DHT22;7483;50.498;12.138;2023-03-05T00:58:58;2.60;99.90
14783;DHT22;7483;50.498;12.138;2023-03-05T01:01:26;2.60;99.90
14783;DHT22;7483;50.498;12.138;2023-03-05T01:03:55;2.60;99.90
14783;DHT22;7483;50.498;12.138;2023-03-05T01:06:25;2.60;99.90
14783;DHT22;7483;50.498;12.138;2023-03-05T01:08:54;2.60;99.90
14783;DHT22;7483;50.498;12.138;2023-03-05T01:11:24;2.70;99.90
14783;DHT22;7483;50.498;12.138;2023-03-05T01:13:52;2.70;99.90
14783;DHT22;7483;50.498;12.138;2023-03-05T01:16:20;2.60;99.90
14783;DHT22;7483;50.498;12.138;2023-03-05T01:18:48;2.70;99.90
14783;DHT22;7483;50.498;12.138;2023-03-05T01:21:16;2.60;99.90
14783;DHT22;7483;50.498;12.138;2023-03-05T01:23:44;2.60;99.90
14783;DHT22;7483;50.498;12.138;2023-03-05T01:26:12;2.60;99.90
14783;DHT22;7483;50.498;12.138;2023-03-05T01:28:42;2.60;99.90
14783;DHT22;7483;50.498;12.138;2023-03-05T01:31:10;2.60;99.90
14783;DHT22;7483;50.498;12.138;2023-03-05T01:33:38;2.60;99.90
14783;DHT22;7483;50.498;12.138;2023-03-05T01:36:08;2.70;99.90
14783;DHT22;7483;50.498;12.138;2023-03-05T01:38:39;2.70;99.90
14783;DHT22;7483;50.498;12.138;2023-03-05T01:41:07;2.70;99.90
14783;DHT22;7483;50.498;12.138;2023-03-05T01:43:37;2.70;99.90
14783;DHT22;7483;50.498;12.138;2023-03-05T01:46:33;2.60;99.90
14783;DHT22;7483;50.498;12.138;2023-03-05T01:49:06;2.70;99.90
14783;DHT22;7483;50.498;12.138;2023-03-05T01:51:47;2.60;99.90
14783;DHT22;7483;50.498;12.138;2023-03-05T01:54:21;2.50;99.90
14783;DHT22;7483;50.498;12.138;2023-03-05T01:56:54;2.50;99.90
14783;DHT22;7483;50.498;12.138;2023-03-05T01:59:25;2.40;99.90
14783;DHT22;7483;50.498;12.138;2023-03-05T02:01:56;2.40;99.90
14783;DHT22;7483;50.498;12.138;2023-03-05T02:04:31;2.40;99.90
14783;DHT22;7483;50.498;12.138;2023-03-05T02:07:04;2.40;99.90
14783;DHT22;7483;50.498;12.138;2023-03-05T02:09:36;2.40;99.90
14783;DHT22;7483;50.498;12.138;2023-03-05T02:12:06;2.60;99.90
14783;DHT22;7483;50.498;12.138;2023-03-05T02:14:35;2.50;99.90
14783;DHT22;7483;50.498;12.138;2023-03-05T02:17:06;2.50;99.90
14783;DHT22;7483;50.498;12.138;2023-03-05T02:19:46;2.60;99.90
14783;DHT22;7483;50.498;12.138;2023-03-05T02:22:19;2.50;99.90
14783;DHT22;7483;50.498;12.138;2023-03-05T02:24:49;2.50;99.90
14783;DHT22;7483;50.498;12.138;2023-03-05T02:27:20;2.50;99.90
14783;DHT22;7483;50.498;12.138;2023-03-05T02:29:53;2.40;99.90
14783;DHT22;7483;50.498;12.138;2023-03-05T02:32:21;2.40;99.90
14783;DHT22;7483;50.498;12.138;2023-03-05T02:34:49;2.40;99.90
14783;DHT22;7483;50.498;12.138;2023-03-05T02:37:18;2.30;99.90
14783;DHT22;7483;50.498;12.138;2023-03-05T02:39:46;2.40;99.90
14783;DHT22;7483;50.498;12.138;2023-03-05T02:42:14;2.40;99.90
14783;DHT22;7483;50.498;12.138;2023-03-05T02:44:42;2.50;99.90
14783;DHT22;7483;50.498;12.138;2023-03-05T02:47:10;2.40;99.90
14783;DHT22;7483;50.498;12.138;2023-03-05T02:49:39;2.40;99.90
14783;DHT22;7483;50.498;12.138;2023-03-05T02:52:07;2.50;99.90
14783;DHT22;7483;50.498;12.138;2023-03-05T02:54:36;2.40;99.90
14783;DHT22;7483;50.498;12.138;2023-03-05T02:57:04;2.30;99.90
14783;DHT22;7483;50.498;12.138;2023-03-05T02:59:32;2.30;99.90
14783;DHT22;7483;50.498;12.138;2023-03-05T03:02:00;2.40;99.90
14783;DHT22;7483;50.498;12.138;2023-03-05T03:04:28;2.40;99.90
14783;DHT22;7483;50.498;12.138;2023-03-05T03:06:56;2.30;99.90
14783;DHT22;7483;50.498;12.138;2023-03-05T03:09:24;2.30;99.90
14783;DHT22;7483;50.498;12.138;2023-03-05T03:11:54;2.40;99.90
14783;DHT22;7483;50.498;12.138;2023-03-05T03:14:21;2.30;99.90
14783;DHT22;7483;50.498;12.138;2023-03-05T03:16:49;2.50;99.90
14783;DHT22;7483;50.498;12.138;2023-03-05T03:19:17;2.50;99.90
14783;DHT22;7483;50.498;12.138;2023-03-05T03:21:45;2.30;99.90
14783;DHT22;7483;50.498;12.138;2023-03-05T03:24:15;2.30;99.90
14783;DHT22;7483;50.498;12.138;2023-03-05T03:26:43;2.30;99.90
14783;DHT22;7483;50.498;12.138;2023-03-05T03:29:13;2.30;99.90
14783;DHT22;7483;50.498;12.138;2023-03-05T03:31:41;2.30;99.90
14783;DHT22;7483;50.498;12.138;2023-03-05T03:34:10;2.20;99.90
14783;DHT22;7483;50.498;12.138;2023-03-05T03:36:38;2.30;99.90
14783;DHT22;7483;50.498;12.138;2023-03-05T03:39:06;2.30;99.90
14783;DHT22;7483;50.498;12.138;2023-03-05T03:41:36;2.30;99.90
14783;DHT22;7483;50.498;12.138;2023-03-05T03:44:07;2.20;99.90
14783;DHT22;7483;50.498;12.138;2023-03-05T03:46:38;2.20;99.90
14783;DHT22;7483;50.498;12.138;2023-03-05T03:49:06;2.30;99.90
14783;DHT22;7483;50.498;12.138;2023-03-05T03:51:34;2.30;99.90
14783;DHT22;7483;50.498;12.138;2023-03-05T03:54:02;2.20;99.90
14783;DHT22;7483;50.498;12.138;2023-03-05T03:56:30;2.30;99.90
14783;DHT22;7483;50.498;12.138;2023-03-05T03:58:58;2.30;99.90
14783;DHT22;7483;50.498;12.138;2023-03-05T04:01:26;2.20;99.90
14783;DHT22;7483;50.498;12.138;2023-03-05T04:03:56;2.20;99.90
14783;DHT22;7483;50.498;12.138;2023-03-05T04:06:24;2.20;99.90
14783;DHT22;7483;50.498;12.138;2023-03-05T04:08:52;2.20;99.90
14783;DHT22;7483;50.498;12.138;2023-03-05T04:11:20;2.30;99.90
14783;DHT22;7483;50.498;12.138;2023-03-05T04:13:48;2.20;99.90
14783;DHT22;7483;50.498;12.138;2023-03-05T04:16:18;2.20;99.90
14783;DHT22;7483;50.498;12.138;2023-03-05T04:18:46;2.20;99.90
14783;DHT22;7483;50.498;12.138;2023-03-05T04:21:15;2.20;99.90
14783;DHT22;7483;50.498;12.138;2023-03-05T04:23:43;2.20;99.90
14783;DHT22;7483;50.498;12.138;2023-03-05T04:26:11;2.20;99.90
14783;DHT22;7483;50.498;12.138;2023-03-05T04:28:39;2.10;99.90
14783;DHT22;7483;50.498;12.138;2023-03-05T04:31:07;2.10;99.90
14783;DHT22;7483;50.498;12.138;2023-03-05T04:33:35;2.00;99.90
14783;DHT22;7483;50.498;12.138;2023-03-05T04:36:04;2.00;99.90
14783;DHT22;7483;50.498;12.138;2023-03-05T04:38:34;2.00;99.90
14783;DHT22;7483;50.498;12.138;2023-03-05T04:41:02;2.00;99.90
14783;DHT22;7483;50.498;12.138;2023-03-05T04:43:30;2.00;99.90
14783;DHT22;7483;50.498;12.138;2023-03-05T04:45:58;2.00;99.90
14783;DHT22;7483;50.498;12.138;2023-03-05T04:48:26;2.00;99.90
14783;DHT22;7483;50.498;12.138;2023-03-05T04:50:54;2.00;99.90
14783;DHT22;7483;50.498;12.138;2023-03-05T04:53:23;2.00;99.90
14783;DHT22;7483;50.498;12.138;2023-03-05T04:55:53;2.10;99.90
14783;DHT22;7483;50.498;12.138;2023-03-05T04:58:22;2.00;99.90
14783;DHT22;7483;50.498;12.138;2023-03-05T05:00:50;2.00;99.90
14783;DHT22;7483;50.498;12.138;2023-03-05T05:03:18;2.00;99.90
14783;DHT22;7483;50.498;12.138;2023-03-05T05:05:53;2.00;99.90
14783;DHT22;7483;50.498;12.138;2023-03-05T05:08:22;1.90;99.90
14783;DHT22;7483;50.498;12.138;2023-03-05T05:10:59;1.80;99.90
14783;DHT22;7483;50.498;12.138;2023-03-05T05:13:28;1.80;99.90
14783;DHT22;7483;50.498;12.138;2023-03-05T05:15:57;1.80;99.90
14783;DHT22;7483;50.498;12.138;2023-03-05T05:18:25;1.80;99.90
14783;DHT22;7483;50.498;12.138;2023-03-05T05:20:53;1.80;99.90
14783;DHT22;7483;50.498;12.138;2023-03-05T05:23:21;1.80;99.90
14783;DHT22;7483;50.498;12.138;2023-03-05T05:25:58;1.90;99.90
14783;DHT22;7483;50.498;12.138;2023-03-05T05:28:27;1.80;99.90
14783;DHT22;7483;50.498;12.138;2023-03-05T05:30:56;1.90;99.90
14783;DHT22;7483;50.498;12.138;2023-03-05T05:33:24;1.90;99.90
14783;DHT22;7483;50.498;12.138;2023-03-05T05:35:53;1.90;99.90
14783;DHT22;7483;50.498;12.138;2023-03-05T05:38:21;1.90;99.90
14783;DHT22;7483;50.498;12.138;2023-03-05T05:40:49;2.00;99.90
14783;DHT22;7483;50.498;12.138;2023-03-05T05:43:18;1.90;99.90
14783;DHT22;7483;50.498;12.138;2023-03-05T05:45:46;1.90;99.90
14783;DHT22;7483;50.498;12.138;2023-03-05T05:48:14;1.90;99.90
14783;DHT22;7483;50.498;12.138;2023-03-05T05:50:42;1.90;99.90
14783;DHT22;7483;50.498;12.138;2023-03-05T05:53:10;1.80;99.90
14783;DHT22;7483;50.498;12.138;2023-03-05T05:55:38;1.90;99.90
14783;DHT22;7483;50.498;12.138;2023-03-05T05:58:06;1.90;99.90
14783;DHT22;7483;50.498;12.138;2023-03-05T06:00:36;1.90;99.90
14783;DHT22;7483;50.498;12.138;2023-03-05T06:03:04;1.90;99.90
14783;DHT22;7483;50.498;12.138;2023-03-05T06:05:33;1.90;99.90
14783;DHT22;7483;50.498;12.138;2023-03-05T06:08:02;1.90;99.90
14783;DHT22;7483;50.498;12.138;2023-03-05T06:10:30;1.90;99.90
14783;DHT22;7483;50.498;12.138;2023-03-05T06:12:58;1.90;99.90
14783;DHT22;7483;50.498;12.138;2023-03-05T06:15:25;1.90;99.90
14783;DHT22;7483;50.498;12.138;2023-03-05T06:17:55;1.90;99.90
14783;DHT22;7483;50.498;12.138;2023-03-05T06:20:23;1.90;99.90
14783;DHT22;7483;50.498;12.138;2023-03-05T06:22:51;1.90;99.90
14783;DHT22;7483;50.498;12.138;2023-03-05T06:25:19;1.90;99.90
14783;DHT22;7483;50.498;12.138;2023-03-05T06:27:47;1.90;99.90
14783;DHT22;7483;50.498;12.138;2023-03-05T06:30:15;1.90;99.90
14783;DHT22;7483;50.498;12.138;2023-03-05T06:32:43;1.90;99.90
14783;DHT22;7483;50.498;12.138;2023-03-05T06:35:12;1.90;99.90
14783;DHT22;7483;50.498;12.138;2023-03-05T06:37:40;1.90;99.90
14783;DHT22;7483;50.498;12.138;2023-03-05T06:40:09;1.90;99.90
14783;DHT22;7483;50.498;12.138;2023-03-05T06:42:38;1.90;99.90
14783;DHT22;7483;50.498;12.138;2023-03-05T06:45:07;1.90;99.90
14783;DHT22;7483;50.498;12.138;2023-03-05T06:47:36;1.90;99.90
14783;DHT22;7483;50.498;12.138;2023-03-05T06:50:05;1.90;99.90
14783;DHT22;7483;50.498;12.138;2023-03-05T06:52:34;1.90;99.90
14783;DHT22;7483;50.498;12.138;2023-03-05T06:55:04;1.90;99.90
14783;DHT22;7483;50.498;12.138;2023-03-05T06:57:32;1.90;99.90
14783;DHT22;7483;50.498;12.138;2023-03-05T07:00:00;2.00;99.90
14783;DHT22;7483;50.498;12.138;2023-03-05T07:02:29;1.90;99.90
14783;DHT22;7483;50.498;12.138;2023-03-05T07:04:57;1.90;99.90
14783;DHT22;7483;50.498;12.138;2023-03-05T07:07:25;2.00;99.90
14783;DHT22;7483;50.498;12.138;2023-03-05T07:09:56;1.90;99.90
14783;DHT22;7483;50.498;12.138;2023-03-05T07:12:23;1.90;99.90
14783;DHT22;7483;50.498;12.138;2023-03-05T07:14:51;1.90;99.90
14783;DHT22;7483;50.498;12.138;2023-03-05T07:17:19;1.90;99.90
14783;DHT22;7483;50.498;12.138;2023-03-05T07:19:47;1.90;99.90
14783;DHT22;7483;50.498;12.138;2023-03-05T07:22:15;2.00;99.90
14783;DHT22;7483;50.498;12.138;2023-03-05T07:24:44;1.90;99.90
14783;DHT22;7483;50.498;12.138;2023-03-05T07:27:14;2.00;99.90
14783;DHT22;7483;50.498;12.138;2023-03-05T07:29:42;2.00;99.90
14783;DHT22;7483;50.498;12.138;2023-03-05T07:32:09;2.10;99.90
14783;DHT22;7483;50.498;12.138;2023-03-05T07:34:37;2.10;99.90
14783;DHT22;7483;50.498;12.138;2023-03-05T07:37:05;2.10;99.90
14783;DHT22;7483;50.498;12.138;2023-03-05T07:39:33;2.10;99.90
14783;DHT22;7483;50.498;12.138;2023-03-05T07:42:01;2.10;99.90
14783;DHT22;7483;50.498;12.138;2023-03-05T07:44:48;2.10;99.90
14783;DHT22;7483;50.498;12.138;2023-03-05T07:47:16;2.10;99.90
14783;DHT22;7483;50.498;12.138;2023-03-05T07:49:44;2.20;99.90
14783;DHT22;7483;50.498;12.138;2023-03-05T07:52:12;2.30;99.90
14783;DHT22;7483;50.498;12.138;2023-03-05T07:54:40;2.30;99.90
14783;DHT22;7483;50.498;12.138;2023-03-05T07:57:10;2.40;99.90
14783;DHT22;7483;50.498;12.138;2023-03-05T07:59:39;2.40;99.90
14783;DHT22;7483;50.498;12.138;2023-03-05T08:02:10;2.40;99.90
14783;DHT22;7483;50.498;12.138;2023-03-05T08:04:38;2.40;99.90
14783;DHT22;7483;50.498;12.138;2023-03-05T08:07:07;2.40;99.90
14783;DHT22;7483;50.498;12.138;2023-03-05T08:09:35;2.40;99.90
14783;DHT22;7483;50.498;12.138;2023-03-05T08:12:04;2.40;99.90
14783;DHT22;7483;50.498;12.138;2023-03-05T08:14:32;2.40;99.90
14783;DHT22;7483;50.498;12.138;2023-03-05T08:17:00;2.40;99.90
14783;DHT22;7483;50.498;12.138;2023-03-05T08:19:29;2.40;99.90
14783;DHT22;7483;50.498;12.138;2023-03-05T08:21:57;2.40;99.90
14783;DHT22;7483;50.498;12.138;2023-03-05T08:24:25;2.40;99.90
14783;DHT22;7483;50.498;12.138;2023-03-05T08:26:56;2.40;99.90
14783;DHT22;7483;50.498;12.138;2023-03-05T08:29:25;2.50;99.90
14783;DHT22;7483;50.498;12.138;2023-03-05T08:31:53;2.40;99.90
14783;DHT22;7483;50.498;12.138;2023-03-05T08:34:22;2.40;99.90
14783;DHT22;7483;50.498;12.138;2023-03-05T08:36:51;2.40;99.90
14783;DHT22;7483;50.498;12.138;2023-03-05T08:39:19;2.40;99.90
14783;DHT22;7483;50.498;12.138;2023-03-05T08:41:47;2.40;99.90
14783;DHT22;7483;50.498;12.138;2023-03-05T08:44:15;2.50;99.90
14783;DHT22;7483;50.498;12.138;2023-03-05T08:46:43;2.50;99.90
14783;DHT22;7483;50.498;12.138;2023-03-05T08:49:11;2.40;99.90
14783;DHT22;7483;50.498;12.138;2023-03-05T08:51:38;2.40;99.90
14783;DHT22;7483;50.498;12.138;2023-03-05T08:54:08;2.40;99.90
14783;DHT22;7483;50.498;12.138;2023-03-05T08:56:36;2.40;99.90
14783;DHT22;7483;50.498;12.138;2023-03-05T08:59:06;2.40;99.90
14783;DHT22;7483;50.498;12.138;2023-03-05T09:01:34;2.40;99.90
14783;DHT22;7483;50.498;12.138;2023-03-05T09:04:02;2.50;99.90
14783;DHT22;7483;50.498;12.138;2023-03-05T09:06:30;2.40;99.90
14783;DHT22;7483;50.498;12.138;2023-03-05T09:08:59;2.50;99.90
14783;DHT22;7483;50.498;12.138;2023-03-05T09:11:29;2.50;99.90
14783;DHT22;7483;50.498;12.138;2023-03-05T09:14:01;2.40;99.90
14783;DHT22;7483;50.498;12.138;2023-03-05T09:16:29;2.40;99.90
14783;DHT22;7483;50.498;12.138;2023-03-05T09:18:58;2.30;99.90
14783;DHT22;7483;50.498;12.138;2023-03-05T09:21:26;2.40;99.90
14783;DHT22;7483;50.498;12.138;2023-03-05T09:23:54;2.40;99.90
14783;DHT22;7483;50.498;12.138;2023-03-05T09:26:25;2.50;99.90
14783;DHT22;7483;50.498;12.138;2023-03-05T09:28:54;2.50;99.90
14783;DHT22;7483;50.498;12.138;2023-03-05T09:31:22;2.60;99.90
14783;DHT22;7483;50.498;12.138;2023-03-05T09:33:50;2.60;99.90
14783;DHT22;7483;50.498;12.138;2023-03-05T09:36:21;2.60;99.90
14783;DHT22;7483;50.498;12.138;2023-03-05T09:38:51;2.60;99.90
14783;DHT22;7483;50.498;12.138;2023-03-05T09:41:27;2.60;99.90
14783;DHT22;7483;50.498;12.138;2023-03-05T09:44:15;2.70;99.90
14783;DHT22;7483;50.498;12.138;2023-03-05T09:46:51;2.80;99.90
14783;DHT22;7483;50.498;12.138;2023-03-05T09:49:31;2.80;99.90
14783;DHT22;7483;50.498;12.138;2023-03-05T09:54:56;2.90;99.90
14783;DHT22;7483;50.498;12.138;2023-03-05T09:57:28;3.00;99.90
14783;DHT22;7483;50.498;12.138;2023-03-05T10:00:10;3.10;99.90
14783;DHT22;7483;50.498;12.138;2023-03-05T10:02:52;3.10;99.90
14783;DHT22;7483;50.498;12.138;2023-03-05T10:05:28;3.20;99.90
14783;DHT22;7483;50.498;12.138;2023-03-05T10:08:11;3.20;99.90
14783;DHT22;7483;50.498;12.138;2023-03-05T10:10:42;3.20;99.90
14783;DHT22;7483;50.498;12.138;2023-03-05T10:13:20;3.10;99.90
14783;DHT22;7483;50.498;12.138;2023-03-05T10:16:01;3.20;99.90
14783;DHT22;7483;50.498;12.138;2023-03-05T10:18:40;3.10;99.90
14783;DHT22;7483;50.498;12.138;2023-03-05T10:21:23;3.30;99.90
14783;DHT22;7483;50.498;12.138;2023-03-05T10:24:04;3.20;99.90
14783;DHT22;7483;50.498;12.138;2023-03-05T10:26:51;3.20;99.90
14783;DHT22;7483;50.498;12.138;2023-03-05T10:29:51;3.20;99.90
14783;DHT22;7483;50.498;12.138;2023-03-05T10:32:41;3.20;99.90
14783;DHT22;7483;50.498;12.138;2023-03-05T10:35:32;3.20;99.90
14783;DHT22;7483;50.498;12.138;2023-03-05T10:38:20;3.20;99.90
14783;DHT22;7483;50.498;12.138;2023-03-05T10:40:59;3.10;99.90
14783;DHT22;7483;50.498;12.138;2023-03-05T10:43:39;3.10;99.90
14783;DHT22;7483;50.498;12.138;2023-03-05T10:46:20;3.00;99.90
14783;DHT22;7483;50.498;12.138;2023-03-05T10:48:58;2.90;99.90
14783;DHT22;7483;50.498;12.138;2023-03-05T10:51:34;3.00;99.90
14783;DHT22;7483;50.498;12.138;2023-03-05T10:54:10;2.90;99.90
14783;DHT22;7483;50.498;12.138;2023-03-05T10:56:45;2.90;99.90
14783;DHT22;7483;50.498;12.138;2023-03-05T10:59:14;2.80;99.90
14783;DHT22;7483;50.498;12.138;2023-03-05T11:02:01;2.90;99.90
14783;DHT22;7483;50.498;12.138;2023-03-05T11:04:37;2.90;99.90
14783;DHT22;7483;50.498;12.138;2023-03-05T11:07:28;3.00;99.90
14783;DHT22;7483;50.498;12.138;2023-03-05T11:10:05;3.10;99.90
14783;DHT22;7483;50.498;12.138;2023-03-05T11:12:42;3.20;99.90
14783;DHT22;7483;50.498;12.138;2023-03-05T11:15:28;3.30;99.90
14783;DHT22;7483;50.498;12.138;2023-03-05T11:18:15;3.30;99.90
14783;DHT22;7483;50.498;12.138;2023-03-05T11:20:48;3.40;99.90
14783;DHT22;7483;50.498;12.138;2023-03-05T11:23:17;3.50;99.90
14783;DHT22;7483;50.498;12.138;2023-03-05T11:25:57;3.50;99.90
14783;DHT22;7483;50.498;12.138;2023-03-05T11:28:30;3.60;99.90
14783;DHT22;7483;50.498;12.138;2023-03-05T11:31:04;3.60;99.90
14783;DHT22;7483;50.498;12.138;2023-03-05T11:33:55;3.60;99.90
14783;DHT22;7483;50.498;12.138;2023-03-05T11:36:29;3.70;99.90
14783;DHT22;7483;50.498;12.138;2023-03-05T11:39:09;3.70;99.90
14783;DHT22;7483;50.498;12.138;2023-03-05T11:41:46;3.90;99.90
14783;DHT22;7483;50.498;12.138;2023-03-05T11:44:20;3.90;99.90
14783;DHT22;7483;50.498;12.138;2023-03-05T11:46:53;3.90;99.90
14783;DHT22;7483;50.498;12.138;2023-03-05T11:49:26;4.00;99.90
14783;DHT22;7483;50.498;12.138;2023-03-05T11:52:00;3.90;99.90
14783;DHT22;7483;50.498;12.138;2023-03-05T11:54:41;3.90;99.90
14783;DHT22;7483;50.498;12.138;2023-03-05T11:57:20;3.80;99.90
14783;DHT22;7483;50.498;12.138;2023-03-05T11:59:52;3.80;99.90
14783;DHT22;7483;50.498;12.138;2023-03-05T12:02:24;3.80;99.90
14783;DHT22;7483;50.498;12.138;2023-03-05T12:04:55;3.90;99.90
14783;DHT22;7483;50.498;12.138;2023-03-05T12:07:32;3.90;99.90
14783;DHT22;7483;50.498;12.138;2023-03-05T12:10:04;3.90;99.90
14783;DHT22;7483;50.498;12.138;2023-03-05T12:12:38;3.90;99.90
14783;DHT22;7483;50.498;12.138;2023-03-05T12:15:28;3.90;99.90
14783;DHT22;7483;50.498;12.138;2023-03-05T12:18:15;3.90;99.90
14783;DHT22;7483;50.498;12.138;2023-03-05T12:20:59;4.00;99.90
14783;DHT22;7483;50.498;12.138;2023-03-05T12:23:45;4.00;99.90
14783;DHT22;7483;50.498;12.138;2023-03-05T12:26:15;3.90;99.90
14783;DHT22;7483;50.498;12.138;2023-03-05T12:28:55;3.90;99.90
14783;DHT22;7483;50.498;12.138;2023-03-05T12:31:41;3.90;99.90
14783;DHT22;7483;50.498;12.138;2023-03-05T12:34:44;3.80;99.90
14783;DHT22;7483;50.498;12.138;2023-03-05T12:40:50;3.80;99.90
14783;DHT22;7483;50.498;12.138;2023-03-05T12:43:30;3.80;99.90
14783;DHT22;7483;50.498;12.138;2023-03-05T12:46:22;3.80;99.90
14783;DHT22;7483;50.498;12.138;2023-03-05T12:48:52;3.70;99.90
14783;DHT22;7483;50.498;12.138;2023-03-05T12:51:29;3.70;99.90
14783;DHT22;7483;50.498;12.138;2023-03-05T12:54:27;3.70;99.90
14783;DHT22;7483;50.498;12.138;2023-03-05T12:57:01;3.80;99.90
14783;DHT22;7483;50.498;12.138;2023-03-05T12:59:39;3.80;99.90
14783;DHT22;7483;50.498;12.138;2023-03-05T13:02:20;4.00;99.90
14783;DHT22;7483;50.498;12.138;2023-03-05T13:04:57;4.00;99.90
14783;DHT22;7483;50.498;12.138;2023-03-05T13:07:29;4.10;99.90
14783;DHT22;7483;50.498;12.138;2023-03-05T13:09:58;4.00;99.90
14783;DHT22;7483;50.498;12.138;2023-03-05T13:12:29;4.10;99.90
14783;DHT22;7483;50.498;12.138;2023-03-05T13:15:00;4.10;99.90
14783;DHT22;7483;50.498;12.138;2023-03-05T13:17:34;4.20;99.90
14783;DHT22;7483;50.498;12.138;2023-03-05T13:20:23;4.20;99.90
14783;DHT22;7483;50.498;12.138;2023-03-05T13:23:11;4.20;99.90
14783;DHT22;7483;50.498;12.138;2023-03-05T13:25:42;4.20;99.90
14783;DHT22;7483;50.498;12.138;2023-03-05T13:28:14;4.20;99.90
14783;DHT22;7483;50.498;12.138;2023-03-05T13:30:44;4.20;99.90
14783;DHT22;7483;50.498;12.138;2023-03-05T13:33:19;4.20;99.90
14783;DHT22;7483;50.498;12.138;2023-03-05T13:35:51;4.20;99.90
14783;DHT22;7483;50.498;12.138;2023-03-05T13:38:27;4.20;99.90
14783;DHT22;7483;50.498;12.138;2023-03-05T13:41:18;4.20;99.90
14783;DHT22;7483;50.498;12.138;2023-03-05T13:43:50;4.20;99.90
14783;DHT22;7483;50.498;12.138;2023-03-05T13:46:25;4.20;99.90
14783;DHT22;7483;50.498;12.138;2023-03-05T13:48:56;4.30;99.90
14783;DHT22;7483;50.498;12.138;2023-03-05T13:51:44;4.30;99.90
14783;DHT22;7483;50.498;12.138;2023-03-05T13:54:15;4.30;99.90
14783;DHT22;7483;50.498;12.138;2023-03-05T13:56:49;4.30;99.90
14783;DHT22;7483;50.498;12.138;2023-03-05T13:59:21;4.30;99.90
14783;DHT22;7483;50.498;12.138;2023-03-05T14:01:51;4.30;99.90
14783;DHT22;7483;50.498;12.138;2023-03-05T14:04:22;4.30;99.90
14783;DHT22;7483;50.498;12.138;2023-03-05T14:06:55;4.30;99.90
14783;DHT22;7483;50.498;12.138;2023-03-05T14:09:27;4.40;99.90
14783;DHT22;7483;50.498;12.138;2023-03-05T14:11:58;4.30;99.90
14783;DHT22;7483;50.498;12.138;2023-03-05T14:14:33;4.40;99.90
14783;DHT22;7483;50.498;12.138;2023-03-05T14:17:31;4.20;99.90
14783;DHT22;7483;50.498;12.138;2023-03-05T14:20:24;4.20;99.90
14783;DHT22;7483;50.498;12.138;2023-03-05T14:22:54;4.10;99.90
14783;DHT22;7483;50.498;12.138;2023-03-05T14:25:33;4.20;99.90
14783;DHT22;7483;50.498;12.138;2023-03-05T14:28:05;4.20;99.90
14783;DHT22;7483;50.498;12.138;2023-03-05T14:30:46;4.20;99.90
14783;DHT22;7483;50.498;12.138;2023-03-05T14:33:20;4.30;99.90
14783;DHT22;7483;50.498;12.138;2023-03-05T14:35:50;4.30;99.90
14783;DHT22;7483;50.498;12.138;2023-03-05T14:38:22;4.30;99.90
14783;DHT22;7483;50.498;12.138;2023-03-05T14:40:53;4.20;99.90
14783;DHT22;7483;50.498;12.138;2023-03-05T14:43:21;4.20;99.90
14783;DHT22;7483;50.498;12.138;2023-03-05T14:45:51;4.20;99.90
14783;DHT22;7483;50.498;12.138;2023-03-05T14:48:19;4.20;99.90
14783;DHT22;7483;50.498;12.138;2023-03-05T14:50:49;4.20;99.90
14783;DHT22;7483;50.498;12.138;2023-03-05T14:53:24;4.20;99.90
14783;DHT22;7483;50.498;12.138;2023-03-05T14:55:55;4.10;99.90
14783;DHT22;7483;50.498;12.138;2023-03-05T14:58:25;4.10;99.90
14783;DHT22;7483;50.498;12.138;2023-03-05T15:00:59;4.20;99.90
14783;DHT22;7483;50.498;12.138;2023-03-05T15:03:27;4.20;99.90
14783;DHT22;7483;50.498;12.138;2023-03-05T15:05:57;4.10;99.90
14783;DHT22;7483;50.498;12.138;2023-03-05T15:08:27;4.20;99.90
14783;DHT22;7483;50.498;12.138;2023-03-05T15:10:58;4.10;99.90
14783;DHT22;7483;50.498;12.138;2023-03-05T15:13:26;4.00;99.90
14783;DHT22;7483;50.498;12.138;2023-03-05T15:15:54;4.00;99.90
14783;DHT22;7483;50.498;12.138;2023-03-05T15:18:24;4.10;99.90
14783;DHT22;7483;50.498;12.138;2023-03-05T15:20:52;3.90;99.90
14783;DHT22;7483;50.498;12.138;2023-03-05T15:23:20;3.90;99.90
14783;DHT22;7483;50.498;12.138;2023-03-05T15:25:49;3.80;99.90
14783;DHT22;7483;50.498;12.138;2023-03-05T15:28:17;3.70;99.90
14783;DHT22;7483;50.498;12.138;2023-03-05T15:30:46;3.60;99.90
14783;DHT22;7483;50.498;12.138;2023-03-05T15:33:15;3.50;99.90
14783;DHT22;7483;50.498;12.138;2023-03-05T15:35:45;3.50;99.90
14783;DHT22;7483;50.498;12.138;2023-03-05T15:38:13;3.60;99.90
14783;DHT22;7483;50.498;12.138;2023-03-05T15:40:41;3.60;99.90
14783;DHT22;7483;50.498;12.138;2023-03-05T15:43:12;3.70;99.90
14783;DHT22;7483;50.498;12.138;2023-03-05T15:45:40;3.80;99.90
14783;DHT22;7483;50.498;12.138;2023-03-05T15:48:09;3.90;99.90
14783;DHT22;7483;50.498;12.138;2023-03-05T15:50:38;3.90;99.90
14783;DHT22;7483;50.498;12.138;2023-03-05T15:53:12;4.00;99.90
14783;DHT22;7483;50.498;12.138;2023-03-05T15:55:42;4.00;99.90
14783;DHT22;7483;50.498;12.138;2023-03-05T15:58:14;3.80;99.90
14783;DHT22;7483;50.498;12.138;2023-03-05T16:00:44;3.70;99.90
14783;DHT22;7483;50.498;12.138;2023-03-05T16:03:13;3.60;99.90
14783;DHT22;7483;50.498;12.138;2023-03-05T16:05:41;3.60;99.90
14783;DHT22;7483;50.498;12.138;2023-03-05T16:08:10;3.60;99.90
14783;DHT22;7483;50.498;12.138;2023-03-05T16:10:39;3.50;99.90
14783;DHT22;7483;50.498;12.138;2023-03-05T16:13:11;3.40;99.90
14783;DHT22;7483;50.498;12.138;2023-03-05T16:15:45;3.40;99.90
14783;DHT22;7483;50.498;12.138;2023-03-05T16:18:19;3.30;99.90
14783;DHT22;7483;50.498;12.138;2023-03-05T16:20:48;3.30;99.90